Denver, Colorado
Traffic Map
Current Weather Conditions
Denver, Colorado
Clear
Clear
34°
Feels Like: 29°
Wind Chill: 29° Ceiling: Unl
Heat Index: 34° Visibility: 10mi
Dew Point: 28° Wind: 6mph
Humidity: 81% Direction: 230° (SW)
Pressure: 30.56in Gusts: 0mph
Raw Report DataKBJC 240931Z AUTO 23005KT 10SM CLR 01/M02 A3056 RMK AO2
Traffic Incident Summary
Active as of:
Severity:
Category:
InformationThere was an issue retrieving the traffic information for this location. Please try a different location or try again shortly.
Advertisements